Time;durP1;ratioP1;P1;durP2;ratioP2;P2;SDS_P1;SDS_P2;PMS_P1;PMS_P2;Temp;Humidity;BMP_temperature;BMP_pressure;BME280_temperature;BME280_humidity;BME280_pressure;Samples;Min_cycle;Max_cycle;Signal;HPM_P1;HPM_P2
2022/01/22 00:01:52;;;;;;;24.27;4.15;;;7.00;89.70;;;;;;5038595;28;20045;-75
2022/01/22 00:04:18;;;;;;;17.15;3.83;;;6.90;89.90;;;;;;5054504;28;20037;-75
2022/01/22 00:06:43;;;;;;;23.17;5.45;;;6.90;89.80;;;;;;5041910;28;20146;-75
2022/01/22 00:09:10;;;;;;;21.55;3.97;;;6.90;90.00;;;;;;5039350;28;20041;-75
2022/01/22 00:11:39;;;;;;;14.98;3.97;;;6.90;90.00;;;;;;5038253;28;20371;-74
2022/01/22 00:14:25;;;;;;;20.25;3.63;;;6.90;90.00;;;;;;5036284;28;20119;-74
2022/01/22 00:17:00;;;;;;;17.63;3.17;;;6.90;90.00;;;;;;5035698;28;20102;-74
2022/01/22 00:19:27;;;;;;;25.85;6.00;;;6.90;90.10;;;;;;5049861;28;20041;-75
2022/01/22 00:21:53;;;;;;;24.80;4.63;;;6.80;90.00;;;;;;5039726;28;20130;-74
2022/01/22 00:24:20;;;;;;;25.73;4.75;;;6.90;90.10;;;;;;5039730;28;20098;-75
2022/01/22 00:26:46;;;;;;;18.65;3.35;;;6.90;90.20;;;;;;5041999;28;20087;-74
2022/01/22 00:29:12;;;;;;;12.68;3.47;;;6.90;90.00;;;;;;5043247;28;20052;-75
2022/01/22 00:31:39;;;;;;;13.63;3.17;;;6.90;90.10;;;;;;5039971;28;20132;-75
2022/01/22 00:34:06;;;;;;;20.08;3.30;;;6.90;90.20;;;;;;5055642;28;20570;-75
2022/01/22 00:36:33;;;;;;;23.48;5.63;;;6.90;90.20;;;;;;5053974;28;20401;-74
2022/01/22 00:38:59;;;;;;;23.58;3.67;;;6.90;90.20;;;;;;5041893;28;20124;-75
2022/01/22 00:41:25;;;;;;;11.05;3.30;;;6.90;90.30;;;;;;5039563;28;20052;-75
2022/01/22 00:43:51;;;;;;;21.45;4.47;;;6.90;90.40;;;;;;5041575;28;20052;-74
2022/01/22 00:46:17;;;;;;;22.50;3.78;;;6.90;90.40;;;;;;5041550;28;20406;-74
2022/01/22 00:48:43;;;;;;;15.98;3.55;;;6.90;90.80;;;;;;5040524;28;20047;-74
2022/01/22 00:51:08;;;;;;;21.95;4.63;;;6.90;90.70;;;;;;5039629;28;20052;-74
2022/01/22 00:53:34;;;;;;;16.08;3.47;;;6.90;90.90;;;;;;5043490;28;20045;-75
2022/01/22 00:56:00;;;;;;;22.10;3.70;;;6.80;91.30;;;;;;5042023;28;20040;-74
2022/01/22 00:58:25;;;;;;;21.30;4.00;;;6.80;91.40;;;;;;5043195;28;20065;-74
2022/01/22 01:00:51;;;;;;;16.60;4.65;;;6.80;91.50;;;;;;5041872;28;20060;-74
2022/01/22 01:03:17;;;;;;;21.23;4.13;;;6.80;91.50;;;;;;5040330;28;20468;-75
2022/01/22 01:05:43;;;;;;;11.77;3.78;;;6.90;91.10;;;;;;5038638;28;20053;-75
2022/01/22 01:08:08;;;;;;;15.68;3.22;;;6.90;91.10;;;;;;5043353;28;20049;-75
2022/01/22 01:10:34;;;;;;;19.40;3.50;;;6.90;91.20;;;;;;5041579;28;20048;-75
2022/01/22 01:13:00;;;;;;;16.70;3.97;;;6.90;91.30;;;;;;5030322;28;20057;-75
2022/01/22 01:15:53;;;;;;;17.05;3.22;;;6.90;91.20;;;;;;5039901;28;20045;-75
2022/01/22 01:32:18;;;;;;;19.02;3.92;;;6.80;91.60;;;;;;5039108;28;20486;-75
2022/01/22 01:34:46;;;;;;;13.55;2.70;;;6.90;91.50;;;;;;5041148;28;20041;-75
2022/01/22 01:37:15;;;;;;;15.57;3.58;;;6.90;91.50;;;;;;5039281;28;20061;-75
2022/01/22 01:39:42;;;;;;;19.50;3.40;;;6.90;91.50;;;;;;5043546;28;20067;-75
2022/01/22 01:42:16;;;;;;;13.73;3.45;;;6.80;91.80;;;;;;5055465;28;20045;-74
2022/01/22 01:44:42;;;;;;;17.35;4.38;;;6.90;91.80;;;;;;5042261;28;20179;-75
2022/01/22 01:47:11;;;;;;;18.35;3.72;;;6.80;91.70;;;;;;5038248;28;20129;-75
2022/01/22 01:49:37;;;;;;;13.13;2.90;;;6.80;91.80;;;;;;5036464;28;20040;-75
2022/01/22 01:52:07;;;;;;;9.77;2.88;;;6.80;91.60;;;;;;5038960;28;20052;-74
2022/01/22 01:57:33;;;;;;;6.80;2.50;;;6.70;91.70;;;;;;5040902;28;20106;-75
2022/01/22 02:00:00;;;;;;;5.93;2.50;;;6.80;91.50;;;;;;5055156;28;20040;-74
2022/01/22 02:02:29;;;;;;;8.43;2.30;;;6.80;91.50;;;;;;5021669;28;20079;-75
2022/01/22 02:04:54;;;;;;;9.40;2.50;;;6.80;91.50;;;;;;5036948;28;20585;-75
2022/01/22 02:07:20;;;;;;;13.63;3.00;;;6.80;91.50;;;;;;5039921;28;20044;-75
2022/01/22 02:09:46;;;;;;;9.63;3.00;;;6.80;91.30;;;;;;5038657;28;20037;-74
2022/01/22 02:12:23;;;;;;;10.85;3.28;;;6.80;91.70;;;;;;5043965;28;20041;-75
2022/01/22 02:25:46;;;;;;;12.23;2.55;;;6.70;92.70;;;;;;5039754;28;20140;-75
2022/01/22 02:28:13;;;;;;;6.65;2.10;;;6.70;92.80;;;;;;5038709;28;20135;-75
2022/01/22 02:30:43;;;;;;;4.57;2.30;;;6.70;92.90;;;;;;5039948;28;20512;-75
2022/01/22 02:35:44;;;;;;;6.05;2.40;;;6.70;93.00;;;;;;5041564;28;20152;-75
2022/01/22 02:38:16;;;;;;;15.25;2.70;;;6.70;93.10;;;;;;5038078;28;20469;-75
2022/01/22 02:40:46;;;;;;;10.63;2.55;;;6.60;93.10;;;;;;5038077;28;20080;-75
2022/01/22 02:43:13;;;;;;;18.77;2.75;;;6.60;93.20;;;;;;5039228;28;20128;-75
2022/01/22 02:45:40;;;;;;;7.72;2.60;;;6.60;93.40;;;;;;5039055;28;20053;-75
2022/01/22 02:48:06;;;;;;;11.55;3.50;;;6.60;93.40;;;;;;5038840;28;20052;-74
2022/01/22 02:50:31;;;;;;;11.88;2.60;;;6.60;93.30;;;;;;5038284;28;20485;-75
2022/01/22 02:53:02;;;;;;;14.18;2.90;;;6.60;93.30;;;;;;5040125;28;20045;-75
2022/01/22 02:55:27;;;;;;;13.15;2.47;;;6.60;93.50;;;;;;5036982;28;20116;-75
2022/01/22 02:57:53;;;;;;;15.30;2.90;;;6.60;93.60;;;;;;5036032;28;20048;-75
2022/01/22 03:00:22;;;;;;;14.93;2.40;;;6.50;93.70;;;;;;5052967;28;20122;-75
2022/01/22 03:02:49;;;;;;;9.98;2.28;;;6.50;93.80;;;;;;5020454;28;20127;-75
2022/01/22 03:05:14;;;;;;;9.68;2.10;;;6.60;93.80;;;;;;5038125;28;20526;-74
2022/01/22 03:07:41;;;;;;;8.65;2.58;;;6.50;93.80;;;;;;5046760;28;20079;-74
2022/01/22 03:10:09;;;;;;;7.22;2.20;;;6.60;93.80;;;;;;5066328;28;20507;-74
2022/01/22 03:15:29;;;;;;;9.90;2.20;;;6.60;93.60;;;;;;5039807;28;20402;-75
2022/01/22 03:20:41;;;;;;;5.13;2.25;;;6.60;93.60;;;;;;5035383;28;20645;-75
2022/01/22 03:28:25;;;;;;;8.57;2.10;;;6.60;93.50;;;;;;5039974;28;20498;-75
2022/01/22 03:30:51;;;;;;;8.63;2.22;;;6.60;93.50;;;;;;5049292;28;20406;-75
2022/01/22 03:33:20;;;;;;;10.43;2.58;;;6.60;93.50;;;;;;5055927;28;20059;-75
2022/01/22 03:35:53;;;;;;;7.85;2.13;;;6.60;93.50;;;;;;5040374;28;20128;-74
2022/01/22 03:38:19;;;;;;;6.78;2.05;;;6.60;93.60;;;;;;5038883;28;20056;-74
2022/01/22 03:40:49;;;;;;;7.20;2.70;;;6.60;93.60;;;;;;5036554;28;20245;-74
2022/01/22 03:43:15;;;;;;;5.30;2.08;;;6.60;93.60;;;;;;5035755;28;20128;-74
2022/01/22 03:45:41;;;;;;;10.75;2.22;;;6.60;93.60;;;;;;5038416;28;20045;-74
2022/01/22 03:48:06;;;;;;;4.00;2.35;;;6.60;93.60;;;;;;5037669;28;20114;-74
2022/01/22 03:50:32;;;;;;;16.10;2.85;;;6.60;93.50;;;;;;5036207;28;20041;-75
2022/01/22 03:52:58;;;;;;;7.50;2.05;;;6.60;93.50;;;;;;5039232;28;20430;-74
2022/01/22 03:55:39;;;;;;;8.38;2.45;;;6.50;93.60;;;;;;5036180;28;20057;-74
2022/01/22 03:58:05;;;;;;;;;;;6.60;93.70;;;;;;5048121;28;20119;-75
2022/01/22 04:00:31;;;;;;;8.75;2.25;;;6.50;93.70;;;;;;5047603;28;20004;-74
2022/01/22 04:03:12;;;;;;;5.07;2.25;;;6.50;93.80;;;;;;5048059;28;20048;-75
2022/01/22 04:05:49;;;;;;;10.50;2.80;;;6.50;93.80;;;;;;5045736;28;20052;-74
2022/01/22 04:08:18;;;;;;;16.95;2.80;;;6.50;93.70;;;;;;5046562;28;20094;-74
2022/01/22 04:10:43;;;;;;;6.82;2.78;;;6.50;93.70;;;;;;5047377;28;20041;-74
2022/01/22 04:13:13;;;;;;;7.55;3.05;;;6.50;93.70;;;;;;5046429;28;20067;-74
2022/01/22 04:15:40;;;;;;;8.77;2.65;;;6.50;93.70;;;;;;5047492;28;20095;-74
2022/01/22 04:28:48;;;;;;;6.28;2.22;;;6.60;93.60;;;;;;5052517;28;20079;-74
2022/01/22 04:31:14;;;;;;;9.45;2.35;;;6.60;93.60;;;;;;5047978;28;20080;-74
2022/01/22 04:33:40;;;;;;;7.40;2.25;;;6.60;93.60;;;;;;5048222;28;20041;-74
2022/01/22 04:36:06;;;;;;;5.65;2.00;;;6.60;93.60;;;;;;5048528;28;20037;-74
2022/01/22 04:38:32;;;;;;;7.82;1.90;;;6.60;93.60;;;;;;5048010;28;20048;-74
2022/01/22 04:40:59;;;;;;;5.50;1.95;;;6.60;93.60;;;;;;5046938;28;20077;-74
2022/01/22 04:43:24;;;;;;;4.53;2.22;;;6.60;93.60;;;;;;5048287;28;20056;-74
2022/01/22 04:46:11;;;;;;;9.23;2.50;;;6.60;93.70;;;;;;5048144;28;20040;-74
2022/01/22 04:48:48;;;;;;;7.85;2.65;;;6.60;93.70;;;;;;5048626;28;20449;-74
2022/01/22 04:56:42;;;;;;;13.05;2.88;;;6.70;93.60;;;;;;5049323;28;20518;-74
2022/01/22 04:59:08;;;;;;;15.50;3.03;;;6.70;93.50;;;;;;5048967;28;20045;-74
2022/01/22 05:01:34;;;;;;;11.15;2.90;;;6.70;93.50;;;;;;5046749;28;20532;-74
2022/01/22 05:04:00;;;;;;;11.63;2.53;;;6.60;93.50;;;;;;5047215;28;20064;-74
2022/01/22 05:06:26;;;;;;;11.88;2.95;;;6.70;93.50;;;;;;5048188;28;20478;-75
2022/01/22 05:08:52;;;;;;;11.65;2.78;;;6.60;93.50;;;;;;5063841;28;20110;-74
2022/01/22 05:11:18;;;;;;;11.63;2.58;;;6.60;93.60;;;;;;5052958;28;20078;-75
2022/01/22 05:13:44;;;;;;;13.18;2.63;;;6.60;93.60;;;;;;5050603;28;20439;-74
2022/01/22 05:16:10;;;;;;;5.05;2.10;;;6.60;93.60;;;;;;5051996;28;20052;-75
2022/01/22 05:18:47;;;;;;;7.68;2.22;;;6.60;93.60;;;;;;5051657;28;20051;-74
2022/01/22 05:21:16;;;;;;;11.88;3.00;;;6.60;93.60;;;;;;5050727;28;20505;-74
2022/01/22 05:23:43;;;;;;;8.18;3.78;;;6.60;93.70;;;;;;5049653;28;20152;-74
2022/01/22 05:26:25;;;;;;;16.23;2.55;;;6.50;93.60;;;;;;5033910;28;20101;-73
2022/01/22 05:31:55;;;;;;;13.07;2.75;;;6.50;93.60;;;;;;5046626;28;19921;-74
2022/01/22 05:37:07;;;;;;;15.95;2.97;;;6.50;93.70;;;;;;5051565;28;20091;-75
2022/01/22 05:39:35;;;;;;;9.15;2.70;;;6.40;93.60;;;;;;5032744;28;20058;-74
2022/01/22 05:42:03;;;;;;;14.02;3.15;;;6.40;93.70;;;;;;5050631;28;20052;-74
2022/01/22 05:44:32;;;;;;;13.77;3.65;;;6.40;93.70;;;;;;5051864;28;20083;-74
2022/01/22 05:47:04;;;;;;;11.93;2.75;;;6.50;93.60;;;;;;5050366;28;20033;-74
2022/01/22 05:49:33;;;;;;;15.00;2.78;;;6.40;93.80;;;;;;5051268;28;20107;-75
2022/01/22 05:52:00;;;;;;;12.07;3.13;;;6.40;93.60;;;;;;5051097;28;20063;-74
2022/01/22 05:59:43;;;;;;;8.45;2.42;;;6.40;93.80;;;;;;5056968;28;20064;-74
2022/01/22 06:02:15;;;;;;;10.50;3.10;;;6.30;93.80;;;;;;5050715;28;20107;-74
2022/01/22 06:04:41;;;;;;;6.07;2.60;;;6.40;93.80;;;;;;5049286;28;20037;-74
2022/01/22 06:07:08;;;;;;;7.95;2.53;;;6.40;93.70;;;;;;5051355;28;20047;-74
2022/01/22 06:09:37;;;;;;;5.18;2.42;;;6.30;93.60;;;;;;5034586;28;20048;-75
2022/01/22 06:14:31;;;;;;;10.85;2.70;;;6.30;93.30;;;;;;5055643;28;20058;-75
2022/01/22 06:16:57;;;;;;;5.43;1.80;;;6.30;93.40;;;;;;5051417;28;20053;-74
2022/01/22 06:19:22;;;;;;;12.25;2.35;;;6.30;93.20;;;;;;5050340;28;20048;-74
2022/01/22 06:21:51;;;;;;;5.93;2.13;;;6.30;93.10;;;;;;5050002;28;20041;-74
2022/01/22 06:24:17;;;;;;;6.07;1.85;;;6.30;93.10;;;;;;5048822;28;20110;-74
2022/01/22 06:26:42;;;;;;;8.77;1.83;;;6.30;92.80;;;;;;5050702;28;20052;-74
2022/01/22 06:29:08;;;;;;;5.32;2.15;;;6.30;92.60;;;;;;5055469;28;20037;-74
2022/01/22 06:31:34;;;;;;;5.72;1.70;;;6.30;92.70;;;;;;5049538;28;20079;-74
2022/01/22 06:34:00;;;;;;;8.93;2.28;;;6.30;92.50;;;;;;5033231;28;20098;-74
2022/01/22 06:36:26;;;;;;;6.15;1.80;;;6.30;92.50;;;;;;5049262;28;20052;-74
2022/01/22 06:39:15;;;;;;;6.22;2.78;;;6.30;92.70;;;;;;5058124;28;20058;-74
2022/01/22 06:41:45;;;;;;;5.53;1.83;;;6.30;92.80;;;;;;5048876;28;20063;-74
2022/01/22 06:44:23;;;;;;;5.47;1.95;;;6.30;92.90;;;;;;5058027;28;20193;-74
2022/01/22 06:46:54;;;;;;;4.63;1.80;;;6.30;93.00;;;;;;5051275;28;20482;-74
2022/01/22 06:49:20;;;;;;;3.17;1.90;;;6.20;93.00;;;;;;5052484;28;20045;-74
2022/01/22 06:51:46;;;;;;;4.97;1.63;;;6.20;93.10;;;;;;5048670;28;20838;-72
2022/01/22 06:54:14;;;;;;;5.72;1.60;;;6.30;93.00;;;;;;5047719;28;20053;-75
2022/01/22 06:56:40;;;;;;;7.57;2.13;;;6.20;93.10;;;;;;5057239;28;20045;-73
2022/01/22 06:59:11;;;;;;;5.10;1.70;;;6.30;93.20;;;;;;5058181;28;20037;-73
2022/01/22 07:01:37;;;;;;;8.02;2.55;;;6.30;93.20;;;;;;5050071;28;20053;-73
2022/01/22 07:04:03;;;;;;;7.03;2.20;;;6.30;93.20;;;;;;5049978;28;20494;-73
2022/01/22 07:06:29;;;;;;;8.90;3.13;;;6.40;93.20;;;;;;5061921;28;20052;-73
2022/01/22 07:08:55;;;;;;;7.28;2.13;;;6.40;93.20;;;;;;5048462;28;20037;-73
2022/01/22 07:11:20;;;;;;;8.10;2.72;;;6.40;93.10;;;;;;5048281;28;20072;-72
2022/01/22 07:13:46;;;;;;;6.05;2.00;;;6.40;93.10;;;;;;5049678;28;20512;-73
2022/01/22 07:16:12;;;;;;;11.88;2.30;;;6.40;93.10;;;;;;5048291;28;20049;-73
2022/01/22 07:18:38;;;;;;;9.35;2.45;;;6.40;93.10;;;;;;5050460;28;20043;-73
2022/01/22 07:21:20;;;;;;;4.40;2.13;;;6.40;93.10;;;;;;5048631;28;20080;-73
2022/01/22 07:26:15;;;;;;;9.15;2.95;;;6.40;92.90;;;;;;5046821;28;20102;-73
2022/01/22 07:28:41;;;;;;;8.63;2.80;;;6.50;93.00;;;;;;5049408;28;20461;-73
2022/01/22 07:31:07;;;;;;;11.05;2.70;;;6.50;92.90;;;;;;5047044;28;20438;-73
2022/01/22 07:33:34;;;;;;;11.20;3.80;;;6.40;92.90;;;;;;5047994;28;20128;-73
2022/01/22 07:36:01;;;;;;;16.50;3.72;;;6.50;92.90;;;;;;5047045;28;20044;-72
2022/01/22 07:38:26;;;;;;;10.48;2.97;;;6.50;92.90;;;;;;5030446;28;20148;-72
2022/01/22 07:40:52;;;;;;;13.75;4.18;;;6.50;92.70;;;;;;5049069;28;20128;-72
2022/01/22 07:43:18;;;;;;;9.57;2.88;;;6.50;92.50;;;;;;5049304;28;20049;-72
2022/01/22 07:45:44;;;;;;;8.10;2.75;;;6.60;92.50;;;;;;5046236;28;20045;-72
2022/01/22 07:48:09;;;;;;;16.98;2.88;;;6.50;92.30;;;;;;5040105;28;20116;-73
2022/01/22 07:50:35;;;;;;;8.65;2.40;;;6.60;92.20;;;;;;5047520;28;20049;-72
2022/01/22 07:53:02;;;;;;;11.93;3.40;;;6.60;92.30;;;;;;5048271;28;20091;-73
2022/01/22 07:55:29;;;;;;;13.75;3.53;;;6.60;92.20;;;;;;5030928;28;20040;-72
2022/01/22 07:57:54;;;;;;;11.93;2.83;;;6.60;92.20;;;;;;5031335;28;20107;-73
2022/01/22 08:00:20;;;;;;;14.60;3.97;;;6.60;92.20;;;;;;5048497;28;20132;-73
2022/01/22 08:02:48;;;;;;;11.70;2.97;;;6.60;92.10;;;;;;5049812;28;20041;-73
2022/01/22 08:05:14;;;;;;;9.02;2.70;;;6.60;92.20;;;;;;5047125;28;20049;-72
2022/01/22 08:07:44;;;;;;;14.05;4.25;;;6.60;92.20;;;;;;5046716;28;20052;-72
2022/01/22 08:10:12;;;;;;;18.23;5.65;;;6.60;92.30;;;;;;5048110;28;20041;-72
2022/01/22 08:12:39;;;;;;;13.18;3.15;;;6.60;92.40;;;;;;5045652;28;20041;-73
2022/01/22 08:15:10;;;;;;;14.75;2.88;;;6.60;92.30;;;;;;5047533;28;20116;-73
2022/01/22 08:17:36;;;;;;;10.50;3.80;;;6.60;92.40;;;;;;5048486;28;20044;-73
2022/01/22 08:20:03;;;;;;;8.57;2.50;;;6.60;92.20;;;;;;5047211;28;20033;-73
2022/01/22 08:22:29;;;;;;;16.48;3.78;;;6.60;92.30;;;;;;5047069;28;20060;-73
2022/01/22 08:24:56;;;;;;;9.32;2.78;;;6.60;92.00;;;;;;5040399;28;20041;-72
2022/01/22 08:29:57;;;;;;;15.70;2.92;;;6.60;92.00;;;;;;5033309;28;20080;-73
2022/01/22 08:37:39;;;;;;;16.40;2.60;;;6.60;91.30;;;;;;5048431;28;19927;-70
2022/01/22 08:40:06;;;;;;;17.90;5.47;;;6.70;91.60;;;;;;5047257;28;20045;-70
2022/01/22 08:42:32;;;;;;;11.93;4.28;;;6.70;91.40;;;;;;5031025;28;20151;-70
2022/01/22 08:44:57;;;;;;;8.20;3.85;;;6.70;91.40;;;;;;5056228;28;20136;-70
2022/01/22 08:47:23;;;;;;;10.57;3.17;;;6.80;91.40;;;;;;5051290;28;20166;-70
2022/01/22 08:49:49;;;;;;;12.05;2.63;;;6.80;91.40;;;;;;5059981;28;20047;-69
2022/01/22 08:52:16;;;;;;;10.13;3.00;;;6.80;91.10;;;;;;5062133;28;20052;-69
2022/01/22 08:54:43;;;;;;;10.95;2.47;;;6.80;91.10;;;;;;5040223;28;20059;-69
2022/01/22 08:57:10;;;;;;;17.00;3.05;;;6.80;90.90;;;;;;5051495;28;20045;-70
2022/01/22 08:59:37;;;;;;;14.25;3.25;;;6.80;91.00;;;;;;5050912;28;20084;-69
2022/01/22 09:02:06;;;;;;;14.40;2.80;;;6.90;91.10;;;;;;5052781;28;20049;-70
2022/01/22 09:04:33;;;;;;;10.05;2.72;;;6.90;91.10;;;;;;5051734;28;20052;-69
2022/01/22 09:06:58;;;;;;;11.82;3.05;;;6.90;90.90;;;;;;5032770;28;20506;-70
2022/01/22 09:09:25;;;;;;;12.68;3.47;;;6.90;90.90;;;;;;5051217;28;20037;-69
2022/01/22 09:11:52;;;;;;;7.75;2.28;;;6.90;90.70;;;;;;5048078;28;20044;-71
2022/01/22 09:14:18;;;;;;;14.32;3.22;;;6.90;90.50;;;;;;5063498;28;20052;-70
2022/01/22 09:16:46;;;;;;;13.13;2.65;;;7.00;90.50;;;;;;5070427;28;20056;-70
2022/01/22 09:19:12;;;;;;;16.13;3.03;;;7.00;90.60;;;;;;5070704;28;20086;-71
2022/01/22 09:21:44;;;;;;;10.43;2.63;;;7.00;90.50;;;;;;5033723;28;20056;-70
2022/01/22 09:24:11;;;;;;;9.32;2.60;;;7.10;90.20;;;;;;5048887;28;20041;-69
2022/01/22 09:26:37;;;;;;;16.00;2.38;;;7.10;90.20;;;;;;5032130;28;20055;-69
2022/01/22 09:29:04;;;;;;;15.23;2.83;;;7.10;90.30;;;;;;5049253;28;20041;-70
2022/01/22 09:31:31;;;;;;;9.02;2.70;;;7.20;90.20;;;;;;5032590;28;20033;-70
2022/01/22 09:33:59;;;;;;;9.52;2.58;;;7.20;89.90;;;;;;5043791;28;20094;-69
2022/01/22 09:36:26;;;;;;;13.68;2.60;;;7.10;89.50;;;;;;5052503;28;20137;-66
2022/01/22 09:38:53;;;;;;;6.60;2.25;;;7.20;89.50;;;;;;5057568;28;20049;-69
2022/01/22 09:41:21;;;;;;;9.35;2.78;;;7.20;89.70;;;;;;5039132;28;20245;-68
2022/01/22 09:43:46;;;;;;;7.07;2.33;;;7.30;89.60;;;;;;5045232;28;20074;-68
2022/01/22 09:46:13;;;;;;;11.93;3.10;;;7.30;89.30;;;;;;5046269;28;20501;-69
2022/01/22 09:48:43;;;;;;;15.50;2.58;;;7.30;89.30;;;;;;5048893;28;20045;-69
2022/01/22 09:51:10;;;;;;;15.73;2.90;;;7.30;89.20;;;;;;5044348;28;20045;-68
2022/01/22 09:53:36;;;;;;;11.77;3.10;;;7.30;89.20;;;;;;5046387;28;20098;-68
2022/01/22 09:56:02;;;;;;;14.90;4.03;;;7.30;89.40;;;;;;5035220;28;20043;-68
2022/01/22 09:58:28;;;;;;;15.55;4.38;;;7.30;89.40;;;;;;5051261;28;20042;-68
2022/01/22 10:00:54;;;;;;;12.80;4.43;;;7.30;89.60;;;;;;5050445;28;20061;-68
2022/01/22 10:03:20;;;;;;;12.73;3.58;;;7.30;89.60;;;;;;5043344;28;20045;-68
2022/01/22 10:05:47;;;;;;;19.70;3.60;;;7.30;89.80;;;;;;5035136;28;20523;-68
2022/01/22 10:08:34;;;;;;;12.88;5.18;;;7.30;90.00;;;;;;5050074;28;20063;-69
2022/01/22 10:11:01;;;;;;;16.95;4.90;;;7.30;90.00;;;;;;5047923;28;20045;-69
2022/01/22 10:13:45;;;;;;;13.45;3.10;;;7.30;90.00;;;;;;5048214;28;20471;-68
2022/01/22 10:16:21;;;;;;;13.13;3.50;;;7.40;90.10;;;;;;5047470;28;20041;-70
2022/01/22 10:19:17;;;;;;;21.92;4.90;;;7.40;90.20;;;;;;5048583;28;20440;-70
2022/01/22 10:21:44;;;;;;;13.68;3.58;;;7.50;90.10;;;;;;5052065;28;20076;-69
2022/01/22 10:24:39;;;;;;;11.73;2.83;;;7.50;90.10;;;;;;5050011;28;20041;-70
2022/01/22 10:27:51;;;;;;;14.50;3.20;;;7.50;89.90;;;;;;5049534;28;20478;-70
2022/01/22 10:30:17;;;;;;;11.00;2.90;;;7.40;90.10;;;;;;5029293;28;20088;-69
2022/01/22 10:35:24;;;;;;;16.38;3.78;;;7.40;90.50;;;;;;5051268;28;20053;-69
2022/01/22 10:37:58;;;;;;;15.55;4.40;;;7.50;90.20;;;;;;5048346;28;20049;-72
2022/01/22 10:40:29;;;;;;;12.57;3.13;;;7.60;90.30;;;;;;5044877;28;20120;-72
2022/01/22 10:43:22;;;;;;;14.52;3.00;;;7.50;90.00;;;;;;5055577;28;20110;-72
2022/01/22 10:46:07;;;;;;;15.48;5.03;;;7.50;89.90;;;;;;5049080;28;20045;-72
2022/01/22 10:48:35;;;;;;;16.02;3.88;;;7.50;90.20;;;;;;5047825;28;20052;-72
2022/01/22 10:51:02;;;;;;;20.05;2.90;;;7.50;90.30;;;;;;5044472;28;20123;-71
2022/01/22 10:53:37;;;;;;;20.70;4.75;;;7.50;90.20;;;;;;5048029;28;20037;-71
2022/01/22 10:56:05;;;;;;;13.05;3.15;;;7.50;90.10;;;;;;5037313;28;20083;-71
2022/01/22 10:58:33;;;;;;;22.30;3.38;;;7.50;90.10;;;;;;5044599;28;20455;-71
2022/01/22 11:01:06;;;;;;;12.20;2.85;;;7.50;89.90;;;;;;5047923;28;20057;-72
2022/01/22 11:03:32;;;;;;;9.27;2.35;;;7.50;90.00;;;;;;5055628;28;20059;-71
2022/01/22 11:06:04;;;;;;;14.38;3.33;;;7.50;90.10;;;;;;5047823;28;20036;-71
2022/01/22 11:08:30;;;;;;;11.57;3.10;;;7.60;89.80;;;;;;5046930;28;20048;-72
2022/01/22 11:10:55;;;;;;;7.43;2.50;;;7.50;90.10;;;;;;5049427;28;20037;-73
2022/01/22 11:13:21;;;;;;;17.80;3.35;;;7.40;90.20;;;;;;5031582;28;20049;-72
2022/01/22 11:15:50;;;;;;;13.90;3.65;;;7.40;90.40;;;;;;5048220;28;20137;-72
2022/01/22 11:18:18;;;;;;;12.02;2.90;;;7.50;90.40;;;;;;5031786;28;20045;-73
2022/01/22 11:20:45;;;;;;;14.38;3.00;;;7.50;90.30;;;;;;5049192;28;20033;-75
2022/01/22 11:23:13;;;;;;;7.70;2.55;;;7.40;90.20;;;;;;5065117;28;20053;-72
2022/01/22 11:25:41;;;;;;;12.95;3.10;;;7.50;90.20;;;;;;5049348;28;20136;-72
2022/01/22 11:28:07;;;;;;;10.57;2.60;;;7.50;89.90;;;;;;5048127;28;20497;-72
2022/01/22 11:30:36;;;;;;;10.60;2.53;;;7.60;89.90;;;;;;5049943;28;20490;-72
2022/01/22 11:33:06;;;;;;;16.23;2.38;;;7.60;89.20;;;;;;5049129;28;20056;-72
2022/01/22 11:36:02;;;;;;;10.13;1.77;;;7.60;88.30;;;;;;5047896;28;20044;-73
2022/01/22 11:38:37;;;;;;;10.20;2.33;;;7.60;88.10;;;;;;5044416;28;20123;-74
2022/01/22 11:41:14;;;;;;;10.13;3.80;;;7.60;88.00;;;;;;5048082;28;20041;-73
2022/01/22 11:44:10;;;;;;;12.35;2.50;;;7.60;87.80;;;;;;5047846;28;20041;-73
2022/01/22 11:46:58;;;;;;;10.65;2.58;;;7.60;87.90;;;;;;5043967;28;20076;-72
2022/01/22 11:49:28;;;;;;;15.85;2.58;;;7.60;87.60;;;;;;5047596;28;20106;-72
2022/01/22 11:52:13;;;;;;;9.70;2.25;;;7.60;87.50;;;;;;5048057;28;20044;-73
2022/01/22 11:54:59;;;;;;;6.47;2.28;;;7.70;87.80;;;;;;5041157;28;20528;-71
2022/01/22 11:57:27;;;;;;;14.88;2.78;;;7.70;87.60;;;;;;5059603;28;20055;-73
2022/01/22 12:00:27;;;;;;;12.77;2.70;;;7.70;87.70;;;;;;5056064;28;20049;-69
2022/01/22 12:03:07;;;;;;;20.25;2.72;;;7.90;87.50;;;;;;5048120;28;20060;-73
2022/01/22 12:05:34;;;;;;;9.98;2.22;;;7.90;87.80;;;;;;5046527;28;20049;-72
2022/01/22 12:08:01;;;;;;;9.07;2.83;;;7.80;87.40;;;;;;5047198;28;20607;-72
2022/01/22 12:14:26;;;;;;;16.42;2.30;;;7.90;87.70;;;;;;5044739;28;20532;-72
2022/01/22 12:16:11;;;;;;;17.73;4.90;;;7.90;87.30;;;;;;5050685;28;20185;-73
2022/01/22 12:18:44;;;;;;;19.30;4.35;;;7.80;87.40;;;;;;5051973;28;20494;-73
2022/01/22 12:23:55;;;;;;;11.35;2.60;;;7.80;87.00;;;;;;5051730;28;20041;-71
2022/01/22 12:26:45;;;;;;;13.27;3.20;;;7.70;87.10;;;;;;5051645;28;20048;-72
2022/01/22 12:29:32;;;;;;;16.30;4.13;;;7.70;87.40;;;;;;5044876;28;20055;-72
2022/01/22 12:32:12;;;;;;;12.52;2.20;;;7.80;87.60;;;;;;5044463;28;20040;-72
2022/01/22 12:34:52;;;;;;;11.93;3.53;;;7.70;87.50;;;;;;5054489;28;20048;-71
2022/01/22 12:37:20;;;;;;;11.15;2.42;;;7.70;87.00;;;;;;5035169;28;20049;-72
2022/01/22 12:39:50;;;;;;;11.80;2.50;;;7.60;87.30;;;;;;5064008;28;20139;-72
2022/01/22 12:42:26;;;;;;;7.53;2.05;;;7.70;87.10;;;;;;5033326;28;20040;-69
2022/01/22 12:45:01;;;;;;;10.20;2.00;;;7.70;86.90;;;;;;5047710;28;20071;-72
2022/01/22 12:47:27;;;;;;;12.18;3.63;;;7.70;87.10;;;;;;5051034;28;20071;-73
2022/01/22 12:49:58;;;;;;;10.95;2.05;;;7.70;86.90;;;;;;5056445;28;20072;-72
2022/01/22 12:52:26;;;;;;;7.50;1.77;;;7.70;85.70;;;;;;5051083;28;20468;-72
2022/01/22 12:54:57;;;;;;;12.45;2.85;;;7.60;85.80;;;;;;5052420;28;20093;-73
2022/01/22 12:57:25;;;;;;;4.47;1.55;;;7.60;86.30;;;;;;5045079;28;20103;-72
2022/01/22 12:59:54;;;;;;;7.25;1.45;;;7.70;85.90;;;;;;5049756;28;20088;-70
2022/01/22 13:02:20;;;;;;;4.95;1.63;;;7.60;85.90;;;;;;5045784;28;20080;-69
2022/01/22 13:04:59;;;;;;;4.30;1.42;;;7.50;85.70;;;;;;5047856;28;20099;-69
2022/01/22 13:07:26;;;;;;;6.70;1.58;;;7.60;86.00;;;;;;5045205;28;20050;-69
2022/01/22 13:09:56;;;;;;;7.05;1.67;;;7.60;86.00;;;;;;5045391;28;20415;-69
2022/01/22 13:12:23;;;;;;;5.00;1.38;;;7.60;85.90;;;;;;5051536;28;20053;-68
2022/01/22 13:14:55;;;;;;;5.43;1.60;;;7.60;85.70;;;;;;5051796;28;20144;-69
2022/01/22 13:17:31;;;;;;;12.88;1.70;;;7.60;86.00;;;;;;5052142;28;20049;-70
2022/01/22 13:19:58;;;;;;;7.80;1.77;;;7.60;86.00;;;;;;5055437;28;20079;-71
2022/01/22 13:22:34;;;;;;;5.88;1.75;;;7.60;86.10;;;;;;5037387;28;20087;-70
2022/01/22 13:25:12;;;;;;;11.70;2.33;;;7.60;86.20;;;;;;5048776;28;20739;-70
2022/01/22 13:27:40;;;;;;;7.93;1.83;;;7.60;86.10;;;;;;5050071;28;20457;-67
2022/01/22 13:30:10;;;;;;;8.68;1.70;;;7.60;85.70;;;;;;5050781;28;20045;-71
2022/01/22 13:32:49;;;;;;;7.47;1.73;;;7.60;85.50;;;;;;5049692;28;20041;-70
2022/01/22 13:41:03;;;;;;;14.73;2.10;;;7.60;85.70;;;;;;5058087;28;20063;-70
2022/01/22 13:49:13;;;;;;;8.32;2.63;;;7.60;85.90;;;;;;5055956;28;20402;-70
2022/01/22 13:51:40;;;;;;;4.45;1.48;;;7.60;85.90;;;;;;5049501;28;20040;-71
2022/01/22 13:54:06;;;;;;;5.85;2.22;;;7.60;86.10;;;;;;5047981;28;20041;-70
2022/01/22 13:56:51;;;;;;;11.02;2.45;;;7.60;86.20;;;;;;5058752;28;20067;-69
2022/01/22 13:59:21;;;;;;;5.68;2.05;;;7.60;86.30;;;;;;5048503;28;20057;-70
2022/01/22 14:02:03;;;;;;;10.25;1.60;;;7.60;86.30;;;;;;5046941;28;20060;-70
2022/01/22 14:04:38;;;;;;;7.13;1.48;;;7.60;86.40;;;;;;5043868;28;20047;-70
2022/01/22 14:07:27;;;;;;;7.50;1.20;;;7.60;86.50;;;;;;5048465;28;20563;-71
2022/01/22 14:09:58;;;;;;;9.73;1.85;;;7.60;86.50;;;;;;5029717;28;20120;-71
2022/01/22 14:12:33;;;;;;;3.92;1.13;;;7.60;86.70;;;;;;5029810;28;20041;-71
2022/01/22 14:15:15;;;;;;;4.18;1.40;;;7.60;86.50;;;;;;5029383;28;20048;-70
2022/01/22 14:18:14;;;;;;;9.45;1.70;;;7.60;86.60;;;;;;5036390;28;20041;-71
2022/01/22 14:20:54;;;;;;;9.30;3.42;;;7.60;86.60;;;;;;5044498;28;20131;-70
2022/01/22 14:23:22;;;;;;;8.88;2.15;;;7.60;86.80;;;;;;5042220;28;20490;-70
2022/01/22 14:26:10;;;;;;;7.25;1.67;;;7.60;86.80;;;;;;5035776;28;20037;-70
2022/01/22 14:29:04;;;;;;;11.52;2.65;;;7.60;86.90;;;;;;5029111;28;20044;-69
2022/01/22 14:31:33;;;;;;;10.43;2.10;;;7.60;87.00;;;;;;5030164;28;20049;-71
2022/01/22 14:34:02;;;;;;;8.20;1.95;;;7.50;87.00;;;;;;5034201;28;20448;-70
2022/01/22 14:36:37;;;;;;;8.57;2.55;;;7.60;87.00;;;;;;5035076;28;20044;-71
2022/01/22 14:39:15;;;;;;;5.65;1.95;;;7.50;87.10;;;;;;5049364;28;20045;-70
2022/01/22 14:44:42;;;;;;;10.63;2.40;;;7.50;87.40;;;;;;5036924;28;20091;-71
2022/01/22 14:47:19;;;;;;;11.13;2.13;;;7.40;87.70;;;;;;5049975;28;20049;-71
2022/01/22 14:50:00;;;;;;;9.52;2.00;;;7.40;88.10;;;;;;5029088;28;20554;-71